sensor_id;sensor_type;location;lat;lon;timestamp;P1;durP1;ratioP1;P2;durP2;ratioP2
60722;SDS011;46574;52.818;6.516;2024-01-15T00:02:12;11.27;;;1.90;;
60722;SDS011;46574;52.818;6.516;2024-01-15T00:04:38;9.05;;;1.65;;
60722;SDS011;46574;52.818;6.516;2024-01-15T00:07:05;9.80;;;2.05;;
60722;SDS011;46574;52.818;6.516;2024-01-15T00:09:34;9.23;;;1.83;;
60722;SDS011;46574;52.818;6.516;2024-01-15T00:12:01;11.30;;;2.42;;
60722;SDS011;46574;52.818;6.516;2024-01-15T00:14:27;8.90;;;2.10;;
60722;SDS011;46574;52.818;6.516;2024-01-15T00:16:53;8.30;;;1.92;;
60722;SDS011;46574;52.818;6.516;2024-01-15T00:19:20;8.45;;;1.67;;
60722;SDS011;46574;52.818;6.516;2024-01-15T00:21:46;9.18;;;2.03;;
60722;SDS011;46574;52.818;6.516;2024-01-15T00:24:12;10.13;;;2.63;;
60722;SDS011;46574;52.818;6.516;2024-01-15T00:26:38;9.52;;;1.42;;
60722;SDS011;46574;52.818;6.516;2024-01-15T00:29:04;9.00;;;2.17;;
60722;SDS011;46574;52.818;6.516;2024-01-15T00:31:32;9.18;;;2.15;;
60722;SDS011;46574;52.818;6.516;2024-01-15T00:33:57;9.65;;;2.03;;
60722;SDS011;46574;52.818;6.516;2024-01-15T00:36:23;11.82;;;2.17;;
60722;SDS011;46574;52.818;6.516;2024-01-15T00:38:49;8.48;;;1.73;;
60722;SDS011;46574;52.818;6.516;2024-01-15T00:41:15;5.68;;;1.60;;
60722;SDS011;46574;52.818;6.516;2024-01-15T00:43:40;9.65;;;1.55;;
60722;SDS011;46574;52.818;6.516;2024-01-15T00:46:06;10.95;;;1.90;;
60722;SDS011;46574;52.818;6.516;2024-01-15T00:48:32;7.88;;;1.98;;
60722;SDS011;46574;52.818;6.516;2024-01-15T00:50:58;12.05;;;2.35;;
60722;SDS011;46574;52.818;6.516;2024-01-15T00:53:23;8.23;;;1.98;;
60722;SDS011;46574;52.818;6.516;2024-01-15T00:55:50;8.88;;;1.65;;
60722;SDS011;46574;52.818;6.516;2024-01-15T00:58:16;7.30;;;1.67;;
60722;SDS011;46574;52.818;6.516;2024-01-15T01:00:41;10.35;;;2.05;;
60722;SDS011;46574;52.818;6.516;2024-01-15T01:03:07;8.15;;;1.98;;
60722;SDS011;46574;52.818;6.516;2024-01-15T01:05:33;9.05;;;1.95;;
60722;SDS011;46574;52.818;6.516;2024-01-15T01:08:00;8.63;;;2.10;;
60722;SDS011;46574;52.818;6.516;2024-01-15T01:10:26;9.82;;;2.00;;
60722;SDS011;46574;52.818;6.516;2024-01-15T01:12:52;8.80;;;2.13;;
60722;SDS011;46574;52.818;6.516;2024-01-15T01:15:18;10.98;;;2.30;;
60722;SDS011;46574;52.818;6.516;2024-01-15T01:17:44;8.48;;;1.90;;
60722;SDS011;46574;52.818;6.516;2024-01-15T01:20:09;8.10;;;1.92;;
60722;SDS011;46574;52.818;6.516;2024-01-15T01:22:35;8.57;;;1.92;;
60722;SDS011;46574;52.818;6.516;2024-01-15T01:25:01;11.40;;;2.10;;
60722;SDS011;46574;52.818;6.516;2024-01-15T01:27:27;9.55;;;2.30;;
60722;SDS011;46574;52.818;6.516;2024-01-15T01:29:53;11.43;;;2.42;;
60722;SDS011;46574;52.818;6.516;2024-01-15T01:32:19;10.07;;;2.10;;
60722;SDS011;46574;52.818;6.516;2024-01-15T01:34:45;7.38;;;1.70;;
60722;SDS011;46574;52.818;6.516;2024-01-15T01:37:11;8.93;;;1.90;;
60722;SDS011;46574;52.818;6.516;2024-01-15T01:39:38;9.02;;;2.28;;
60722;SDS011;46574;52.818;6.516;2024-01-15T01:42:04;11.45;;;2.10;;
60722;SDS011;46574;52.818;6.516;2024-01-15T01:44:30;9.13;;;2.22;;
60722;SDS011;46574;52.818;6.516;2024-01-15T01:46:56;7.38;;;1.67;;
60722;SDS011;46574;52.818;6.516;2024-01-15T01:49:23;6.65;;;1.20;;
60722;SDS011;46574;52.818;6.516;2024-01-15T01:51:50;9.38;;;1.52;;
60722;SDS011;46574;52.818;6.516;2024-01-15T01:54:16;5.22;;;1.52;;
60722;SDS011;46574;52.818;6.516;2024-01-15T01:56:44;4.03;;;1.00;;
60722;SDS011;46574;52.818;6.516;2024-01-15T01:59:12;5.78;;;1.30;;
60722;SDS011;46574;52.818;6.516;2024-01-15T02:01:38;6.10;;;1.27;;
60722;SDS011;46574;52.818;6.516;2024-01-15T02:04:04;5.32;;;1.10;;
60722;SDS011;46574;52.818;6.516;2024-01-15T02:06:31;6.57;;;1.77;;
60722;SDS011;46574;52.818;6.516;2024-01-15T02:08:57;3.90;;;1.30;;
60722;SDS011;46574;52.818;6.516;2024-01-15T02:11:22;10.65;;;1.35;;
60722;SDS011;46574;52.818;6.516;2024-01-15T02:13:48;5.50;;;1.25;;
60722;SDS011;46574;52.818;6.516;2024-01-15T02:16:14;5.13;;;1.48;;
60722;SDS011;46574;52.818;6.516;2024-01-15T02:18:40;4.78;;;1.20;;
60722;SDS011;46574;52.818;6.516;2024-01-15T02:21:10;7.03;;;1.50;;
60722;SDS011;46574;52.818;6.516;2024-01-15T02:23:36;4.97;;;0.93;;
60722;SDS011;46574;52.818;6.516;2024-01-15T02:26:03;2.83;;;1.17;;
60722;SDS011;46574;52.818;6.516;2024-01-15T02:28:29;6.28;;;1.52;;
60722;SDS011;46574;52.818;6.516;2024-01-15T02:30:55;5.00;;;1.30;;
60722;SDS011;46574;52.818;6.516;2024-01-15T02:33:22;5.97;;;1.05;;
60722;SDS011;46574;52.818;6.516;2024-01-15T02:35:47;5.70;;;1.35;;
60722;SDS011;46574;52.818;6.516;2024-01-15T02:38:15;5.30;;;1.00;;
60722;SDS011;46574;52.818;6.516;2024-01-15T02:40:41;3.38;;;0.95;;
60722;SDS011;46574;52.818;6.516;2024-01-15T02:43:08;4.00;;;1.30;;
60722;SDS011;46574;52.818;6.516;2024-01-15T02:45:34;4.82;;;1.52;;
60722;SDS011;46574;52.818;6.516;2024-01-15T02:47:59;4.80;;;1.10;;
60722;SDS011;46574;52.818;6.516;2024-01-15T02:50:25;5.72;;;1.20;;
60722;SDS011;46574;52.818;6.516;2024-01-15T02:52:51;7.97;;;1.45;;
60722;SDS011;46574;52.818;6.516;2024-01-15T02:55:17;3.55;;;0.95;;
60722;SDS011;46574;52.818;6.516;2024-01-15T02:57:42;5.25;;;1.40;;
60722;SDS011;46574;52.818;6.516;2024-01-15T03:00:08;6.78;;;1.50;;
60722;SDS011;46574;52.818;6.516;2024-01-15T03:02:38;8.88;;;1.73;;
60722;SDS011;46574;52.818;6.516;2024-01-15T03:05:05;6.22;;;1.42;;
60722;SDS011;46574;52.818;6.516;2024-01-15T03:07:32;5.30;;;1.15;;
60722;SDS011;46574;52.818;6.516;2024-01-15T03:09:58;8.40;;;1.30;;
60722;SDS011;46574;52.818;6.516;2024-01-15T03:12:24;9.55;;;1.75;;
60722;SDS011;46574;52.818;6.516;2024-01-15T03:14:50;9.65;;;1.60;;
60722;SDS011;46574;52.818;6.516;2024-01-15T03:17:16;5.63;;;1.30;;
60722;SDS011;46574;52.818;6.516;2024-01-15T03:19:41;6.65;;;1.58;;
60722;SDS011;46574;52.818;6.516;2024-01-15T03:22:07;10.55;;;1.83;;
60722;SDS011;46574;52.818;6.516;2024-01-15T03:24:34;7.00;;;1.02;;
60722;SDS011;46574;52.818;6.516;2024-01-15T03:26:59;3.97;;;1.17;;
60722;SDS011;46574;52.818;6.516;2024-01-15T03:29:25;4.85;;;1.75;;
60722;SDS011;46574;52.818;6.516;2024-01-15T03:31:51;6.25;;;1.45;;
60722;SDS011;46574;52.818;6.516;2024-01-15T03:34:17;5.75;;;1.33;;
60722;SDS011;46574;52.818;6.516;2024-01-15T03:36:43;8.32;;;1.55;;
60722;SDS011;46574;52.818;6.516;2024-01-15T03:39:09;12.00;;;1.85;;
60722;SDS011;46574;52.818;6.516;2024-01-15T03:41:34;5.88;;;1.55;;
60722;SDS011;46574;52.818;6.516;2024-01-15T03:44:00;6.75;;;1.92;;
60722;SDS011;46574;52.818;6.516;2024-01-15T03:46:26;7.05;;;1.38;;
60722;SDS011;46574;52.818;6.516;2024-01-15T03:48:52;8.63;;;1.73;;
60722;SDS011;46574;52.818;6.516;2024-01-15T03:51:18;8.32;;;1.70;;
60722;SDS011;46574;52.818;6.516;2024-01-15T03:53:44;8.93;;;2.25;;
60722;SDS011;46574;52.818;6.516;2024-01-15T03:56:10;9.48;;;2.10;;
60722;SDS011;46574;52.818;6.516;2024-01-15T03:58:35;8.95;;;2.13;;
60722;SDS011;46574;52.818;6.516;2024-01-15T04:01:01;10.18;;;2.17;;
60722;SDS011;46574;52.818;6.516;2024-01-15T04:03:27;8.73;;;1.95;;
60722;SDS011;46574;52.818;6.516;2024-01-15T04:05:53;9.55;;;1.80;;
60722;SDS011;46574;52.818;6.516;2024-01-15T04:08:18;8.82;;;2.22;;
60722;SDS011;46574;52.818;6.516;2024-01-15T04:10:44;7.43;;;1.83;;
60722;SDS011;46574;52.818;6.516;2024-01-15T04:13:10;10.80;;;2.78;;
60722;SDS011;46574;52.818;6.516;2024-01-15T04:15:36;7.70;;;2.08;;
60722;SDS011;46574;52.818;6.516;2024-01-15T04:18:02;12.60;;;2.03;;
60722;SDS011;46574;52.818;6.516;2024-01-15T04:20:27;11.32;;;1.80;;
60722;SDS011;46574;52.818;6.516;2024-01-15T04:22:53;5.55;;;1.83;;
60722;SDS011;46574;52.818;6.516;2024-01-15T04:25:19;10.18;;;2.22;;
60722;SDS011;46574;52.818;6.516;2024-01-15T04:27:44;8.80;;;2.10;;
60722;SDS011;46574;52.818;6.516;2024-01-15T04:30:10;10.38;;;2.08;;
60722;SDS011;46574;52.818;6.516;2024-01-15T04:32:36;16.42;;;2.50;;
60722;SDS011;46574;52.818;6.516;2024-01-15T04:35:02;12.43;;;2.10;;
60722;SDS011;46574;52.818;6.516;2024-01-15T04:37:27;9.65;;;2.22;;
60722;SDS011;46574;52.818;6.516;2024-01-15T04:39:53;8.25;;;1.92;;
60722;SDS011;46574;52.818;6.516;2024-01-15T04:42:20;8.68;;;1.63;;
60722;SDS011;46574;52.818;6.516;2024-01-15T04:44:47;7.82;;;2.00;;
60722;SDS011;46574;52.818;6.516;2024-01-15T04:47:12;5.30;;;1.75;;
60722;SDS011;46574;52.818;6.516;2024-01-15T04:49:38;9.40;;;2.10;;
60722;SDS011;46574;52.818;6.516;2024-01-15T04:52:04;9.07;;;1.70;;
60722;SDS011;46574;52.818;6.516;2024-01-15T04:54:29;9.18;;;1.92;;
60722;SDS011;46574;52.818;6.516;2024-01-15T04:56:55;6.60;;;1.67;;
60722;SDS011;46574;52.818;6.516;2024-01-15T04:59:21;6.45;;;1.92;;
60722;SDS011;46574;52.818;6.516;2024-01-15T05:01:46;10.27;;;1.58;;
60722;SDS011;46574;52.818;6.516;2024-01-15T05:04:13;8.50;;;1.67;;
60722;SDS011;46574;52.818;6.516;2024-01-15T05:06:39;9.48;;;1.67;;
60722;SDS011;46574;52.818;6.516;2024-01-15T05:09:05;11.65;;;1.80;;
60722;SDS011;46574;52.818;6.516;2024-01-15T05:11:31;9.55;;;2.03;;
60722;SDS011;46574;52.818;6.516;2024-01-15T05:13:56;14.15;;;2.22;;
60722;SDS011;46574;52.818;6.516;2024-01-15T05:16:22;8.88;;;2.30;;
60722;SDS011;46574;52.818;6.516;2024-01-15T05:18:47;8.48;;;1.83;;
60722;SDS011;46574;52.818;6.516;2024-01-15T05:21:13;8.57;;;2.03;;
60722;SDS011;46574;52.818;6.516;2024-01-15T05:23:39;10.45;;;2.20;;
60722;SDS011;46574;52.818;6.516;2024-01-15T05:26:04;10.98;;;2.10;;
60722;SDS011;46574;52.818;6.516;2024-01-15T05:28:30;8.18;;;2.25;;
60722;SDS011;46574;52.818;6.516;2024-01-15T05:30:55;8.95;;;2.10;;
60722;SDS011;46574;52.818;6.516;2024-01-15T05:33:22;9.30;;;2.05;;
60722;SDS011;46574;52.818;6.516;2024-01-15T05:35:48;8.27;;;1.80;;
60722;SDS011;46574;52.818;6.516;2024-01-15T05:38:15;7.35;;;1.88;;
60722;SDS011;46574;52.818;6.516;2024-01-15T05:40:43;7.53;;;1.88;;
60722;SDS011;46574;52.818;6.516;2024-01-15T05:43:09;7.85;;;2.00;;
60722;SDS011;46574;52.818;6.516;2024-01-15T05:45:35;7.38;;;1.83;;
60722;SDS011;46574;52.818;6.516;2024-01-15T05:48:03;10.30;;;1.95;;
60722;SDS011;46574;52.818;6.516;2024-01-15T05:50:29;9.88;;;1.92;;
60722;SDS011;46574;52.818;6.516;2024-01-15T05:52:54;8.88;;;2.13;;
60722;SDS011;46574;52.818;6.516;2024-01-15T05:55:20;8.77;;;1.80;;
60722;SDS011;46574;52.818;6.516;2024-01-15T05:57:46;11.52;;;1.83;;
60722;SDS011;46574;52.818;6.516;2024-01-15T06:00:11;6.28;;;2.20;;
60722;SDS011;46574;52.818;6.516;2024-01-15T06:02:38;10.05;;;2.03;;
60722;SDS011;46574;52.818;6.516;2024-01-15T06:05:04;11.35;;;2.17;;
60722;SDS011;46574;52.818;6.516;2024-01-15T06:07:31;8.35;;;1.50;;
60722;SDS011;46574;52.818;6.516;2024-01-15T06:09:58;11.32;;;2.25;;
60722;SDS011;46574;52.818;6.516;2024-01-15T06:12:24;7.75;;;1.63;;
60722;SDS011;46574;52.818;6.516;2024-01-15T06:14:49;7.40;;;1.70;;
60722;SDS011;46574;52.818;6.516;2024-01-15T06:17:15;9.63;;;1.88;;
60722;SDS011;46574;52.818;6.516;2024-01-15T06:19:40;7.15;;;1.60;;
60722;SDS011;46574;52.818;6.516;2024-01-15T06:22:06;7.22;;;1.60;;
60722;SDS011;46574;52.818;6.516;2024-01-15T06:24:32;8.60;;;1.60;;
60722;SDS011;46574;52.818;6.516;2024-01-15T06:26:57;5.63;;;1.83;;
60722;SDS011;46574;52.818;6.516;2024-01-15T06:29:25;12.85;;;1.92;;
60722;SDS011;46574;52.818;6.516;2024-01-15T06:31:51;9.50;;;2.08;;
60722;SDS011;46574;52.818;6.516;2024-01-15T06:34:17;9.85;;;1.83;;
60722;SDS011;46574;52.818;6.516;2024-01-15T06:36:42;7.68;;;1.55;;
60722;SDS011;46574;52.818;6.516;2024-01-15T06:39:08;6.97;;;1.58;;
60722;SDS011;46574;52.818;6.516;2024-01-15T06:41:35;12.52;;;2.45;;
60722;SDS011;46574;52.818;6.516;2024-01-15T06:44:06;7.70;;;2.03;;
60722;SDS011;46574;52.818;6.516;2024-01-15T06:46:32;9.98;;;2.30;;
60722;SDS011;46574;52.818;6.516;2024-01-15T06:48:57;8.68;;;2.13;;
60722;SDS011;46574;52.818;6.516;2024-01-15T06:51:23;9.00;;;2.03;;
60722;SDS011;46574;52.818;6.516;2024-01-15T06:53:49;8.18;;;1.98;;
60722;SDS011;46574;52.818;6.516;2024-01-15T06:56:14;10.00;;;1.63;;
60722;SDS011;46574;52.818;6.516;2024-01-15T06:58:40;5.20;;;1.77;;
60722;SDS011;46574;52.818;6.516;2024-01-15T07:01:06;9.10;;;1.75;;
60722;SDS011;46574;52.818;6.516;2024-01-15T07:03:35;8.20;;;1.95;;
60722;SDS011;46574;52.818;6.516;2024-01-15T07:06:02;9.63;;;1.90;;
60722;SDS011;46574;52.818;6.516;2024-01-15T07:08:28;10.73;;;2.60;;
60722;SDS011;46574;52.818;6.516;2024-01-15T07:10:53;8.95;;;1.75;;
60722;SDS011;46574;52.818;6.516;2024-01-15T07:13:19;10.05;;;1.92;;
60722;SDS011;46574;52.818;6.516;2024-01-15T07:15:45;10.20;;;1.65;;
60722;SDS011;46574;52.818;6.516;2024-01-15T07:18:10;9.75;;;2.20;;
60722;SDS011;46574;52.818;6.516;2024-01-15T07:20:36;12.57;;;1.83;;
60722;SDS011;46574;52.818;6.516;2024-01-15T07:23:02;7.18;;;1.90;;
60722;SDS011;46574;52.818;6.516;2024-01-15T07:25:28;8.65;;;1.90;;
60722;SDS011;46574;52.818;6.516;2024-01-15T07:27:53;11.38;;;2.00;;
60722;SDS011;46574;52.818;6.516;2024-01-15T07:30:19;8.27;;;1.92;;
60722;SDS011;46574;52.818;6.516;2024-01-15T07:32:47;10.30;;;1.98;;
60722;SDS011;46574;52.818;6.516;2024-01-15T07:35:13;8.82;;;1.88;;
60722;SDS011;46574;52.818;6.516;2024-01-15T07:37:40;8.27;;;1.73;;
60722;SDS011;46574;52.818;6.516;2024-01-15T07:40:06;8.93;;;1.63;;
60722;SDS011;46574;52.818;6.516;2024-01-15T07:42:33;6.57;;;1.85;;
60722;SDS011;46574;52.818;6.516;2024-01-15T07:44:59;13.05;;;2.50;;
60722;SDS011;46574;52.818;6.516;2024-01-15T07:47:25;9.50;;;2.03;;
60722;SDS011;46574;52.818;6.516;2024-01-15T07:49:52;10.18;;;1.73;;
60722;SDS011;46574;52.818;6.516;2024-01-15T07:52:18;10.55;;;2.30;;
60722;SDS011;46574;52.818;6.516;2024-01-15T07:54:44;9.25;;;1.60;;
60722;SDS011;46574;52.818;6.516;2024-01-15T07:57:10;8.93;;;1.75;;
60722;SDS011;46574;52.818;6.516;2024-01-15T07:59:36;8.90;;;2.10;;
60722;SDS011;46574;52.818;6.516;2024-01-15T08:02:02;9.05;;;1.83;;
60722;SDS011;46574;52.818;6.516;2024-01-15T08:04:28;8.88;;;2.40;;
60722;SDS011;46574;52.818;6.516;2024-01-15T08:06:54;9.23;;;1.73;;
60722;SDS011;46574;52.818;6.516;2024-01-15T08:09:20;7.82;;;1.67;;
60722;SDS011;46574;52.818;6.516;2024-01-15T08:11:45;8.48;;;2.00;;
60722;SDS011;46574;52.818;6.516;2024-01-15T08:14:11;10.77;;;1.48;;
60722;SDS011;46574;52.818;6.516;2024-01-15T08:16:38;8.75;;;1.90;;
60722;SDS011;46574;52.818;6.516;2024-01-15T08:19:04;10.10;;;1.95;;
60722;SDS011;46574;52.818;6.516;2024-01-15T08:21:30;9.60;;;1.77;;
60722;SDS011;46574;52.818;6.516;2024-01-15T08:23:57;9.70;;;2.17;;
60722;SDS011;46574;52.818;6.516;2024-01-15T08:26:24;8.75;;;1.90;;
60722;SDS011;46574;52.818;6.516;2024-01-15T08:28:49;9.82;;;2.10;;
60722;SDS011;46574;52.818;6.516;2024-01-15T08:31:15;6.00;;;1.60;;
60722;SDS011;46574;52.818;6.516;2024-01-15T08:33:42;11.23;;;1.88;;
60722;SDS011;46574;52.818;6.516;2024-01-15T08:36:07;8.00;;;1.92;;
60722;SDS011;46574;52.818;6.516;2024-01-15T08:38:34;10.95;;;2.53;;
60722;SDS011;46574;52.818;6.516;2024-01-15T08:41:00;11.40;;;2.03;;
60722;SDS011;46574;52.818;6.516;2024-01-15T08:43:26;16.08;;;3.42;;
60722;SDS011;46574;52.818;6.516;2024-01-15T08:45:52;9.65;;;2.35;;
60722;SDS011;46574;52.818;6.516;2024-01-15T08:48:18;8.75;;;2.13;;
60722;SDS011;46574;52.818;6.516;2024-01-15T08:50:44;8.50;;;2.35;;
60722;SDS011;46574;52.818;6.516;2024-01-15T08:53:13;9.80;;;2.58;;
60722;SDS011;46574;52.818;6.516;2024-01-15T08:55:39;11.75;;;2.00;;
60722;SDS011;46574;52.818;6.516;2024-01-15T08:58:07;9.93;;;1.83;;
60722;SDS011;46574;52.818;6.516;2024-01-15T09:00:33;12.75;;;2.67;;
60722;SDS011;46574;52.818;6.516;2024-01-15T09:02:59;11.38;;;2.33;;
60722;SDS011;46574;52.818;6.516;2024-01-15T09:05:25;10.38;;;2.25;;
60722;SDS011;46574;52.818;6.516;2024-01-15T09:07:51;12.77;;;2.30;;
60722;SDS011;46574;52.818;6.516;2024-01-15T09:10:19;8.45;;;2.00;;
60722;SDS011;46574;52.818;6.516;2024-01-15T09:12:45;12.55;;;2.40;;
60722;SDS011;46574;52.818;6.516;2024-01-15T09:15:11;10.88;;;2.13;;
60722;SDS011;46574;52.818;6.516;2024-01-15T09:17:37;13.15;;;2.00;;
60722;SDS011;46574;52.818;6.516;2024-01-15T09:20:03;10.00;;;1.88;;
60722;SDS011;46574;52.818;6.516;2024-01-15T09:22:30;9.43;;;1.88;;
60722;SDS011;46574;52.818;6.516;2024-01-15T09:24:56;8.18;;;2.00;;
60722;SDS011;46574;52.818;6.516;2024-01-15T09:27:22;7.90;;;1.90;;
60722;SDS011;46574;52.818;6.516;2024-01-15T09:29:48;8.02;;;1.90;;
60722;SDS011;46574;52.818;6.516;2024-01-15T09:32:13;11.95;;;1.98;;
60722;SDS011;46574;52.818;6.516;2024-01-15T09:34:40;6.75;;;1.67;;
60722;SDS011;46574;52.818;6.516;2024-01-15T09:37:06;10.40;;;1.77;;
60722;SDS011;46574;52.818;6.516;2024-01-15T09:39:32;8.75;;;1.52;;
60722;SDS011;46574;52.818;6.516;2024-01-15T09:41:58;8.40;;;1.88;;
60722;SDS011;46574;52.818;6.516;2024-01-15T09:44:24;6.15;;;1.80;;
60722;SDS011;46574;52.818;6.516;2024-01-15T09:46:51;6.57;;;1.65;;
60722;SDS011;46574;52.818;6.516;2024-01-15T09:49:17;5.95;;;2.00;;
60722;SDS011;46574;52.818;6.516;2024-01-15T09:51:44;9.20;;;2.20;;
60722;SDS011;46574;52.818;6.516;2024-01-15T09:54:10;7.63;;;1.40;;
60722;SDS011;46574;52.818;6.516;2024-01-15T09:56:38;6.05;;;1.70;;
60722;SDS011;46574;52.818;6.516;2024-01-15T09:59:04;8.27;;;1.80;;
60722;SDS011;46574;52.818;6.516;2024-01-15T10:01:31;10.00;;;1.60;;
60722;SDS011;46574;52.818;6.516;2024-01-15T10:03:57;7.45;;;2.38;;
60722;SDS011;46574;52.818;6.516;2024-01-15T10:06:23;9.70;;;1.80;;
60722;SDS011;46574;52.818;6.516;2024-01-15T10:08:53;6.70;;;1.70;;
60722;SDS011;46574;52.818;6.516;2024-01-15T10:11:21;5.53;;;1.50;;
60722;SDS011;46574;52.818;6.516;2024-01-15T10:13:47;6.30;;;1.60;;
60722;SDS011;46574;52.818;6.516;2024-01-15T10:16:18;7.03;;;1.73;;
60722;SDS011;46574;52.818;6.516;2024-01-15T10:18:44;6.47;;;1.60;;
60722;SDS011;46574;52.818;6.516;2024-01-15T10:21:10;5.38;;;1.17;;
60722;SDS011;46574;52.818;6.516;2024-01-15T10:23:35;6.07;;;1.27;;
60722;SDS011;46574;52.818;6.516;2024-01-15T10:26:02;4.32;;;1.10;;
60722;SDS011;46574;52.818;6.516;2024-01-15T10:30:57;4.68;;;1.10;;
60722;SDS011;46574;52.818;6.516;2024-01-15T10:33:26;8.32;;;1.50;;
60722;SDS011;46574;52.818;6.516;2024-01-15T10:35:53;5.72;;;1.48;;
60722;SDS011;46574;52.818;6.516;2024-01-15T10:38:23;5.82;;;1.20;;
60722;SDS011;46574;52.818;6.516;2024-01-15T10:40:57;6.05;;;1.40;;
60722;SDS011;46574;52.818;6.516;2024-01-15T10:43:22;7.53;;;1.30;;
60722;SDS011;46574;52.818;6.516;2024-01-15T10:45:49;5.45;;;1.30;;
60722;SDS011;46574;52.818;6.516;2024-01-15T10:48:16;7.45;;;1.40;;
60722;SDS011;46574;52.818;6.516;2024-01-15T10:50:44;5.50;;;1.33;;
60722;SDS011;46574;52.818;6.516;2024-01-15T10:53:11;5.30;;;1.35;;
60722;SDS011;46574;52.818;6.516;2024-01-15T10:55:38;5.80;;;1.67;;
60722;SDS011;46574;52.818;6.516;2024-01-15T10:58:07;5.75;;;0.90;;
60722;SDS011;46574;52.818;6.516;2024-01-15T11:00:34;4.00;;;0.93;;
60722;SDS011;46574;52.818;6.516;2024-01-15T11:05:33;3.30;;;1.17;;
60722;SDS011;46574;52.818;6.516;2024-01-15T11:08:01;4.80;;;1.08;;
60722;SDS011;46574;52.818;6.516;2024-01-15T11:10:40;3.30;;;1.10;;
60722;SDS011;46574;52.818;6.516;2024-01-15T11:19:02;3.60;;;0.80;;
60722;SDS011;46574;52.818;6.516;2024-01-15T11:21:23;7.47;;;1.05;;
60722;SDS011;46574;52.818;6.516;2024-01-15T11:23:58;3.17;;;0.82;;
60722;SDS011;46574;52.818;6.516;2024-01-15T11:29:02;3.03;;;0.60;;
60722;SDS011;46574;52.818;6.516;2024-01-15T11:34:09;1.10;;;0.43;;
60722;SDS011;46574;52.818;6.516;2024-01-15T11:41:55;2.55;;;0.60;;
60722;SDS011;46574;52.818;6.516;2024-01-15T11:44:28;1.95;;;0.70;;
60722;SDS011;46574;52.818;6.516;2024-01-15T11:46:58;1.63;;;0.80;;
60722;SDS011;46574;52.818;6.516;2024-01-15T11:50:11;1.63;;;0.60;;
60722;SDS011;46574;52.818;6.516;2024-01-15T11:52:21;6.47;;;0.98;;
60722;SDS011;46574;52.818;6.516;2024-01-15T11:57:50;4.25;;;1.02;;
60722;SDS011;46574;52.818;6.516;2024-01-15T12:00:19;2.40;;;1.00;;
60722;SDS011;46574;52.818;6.516;2024-01-15T12:02:47;1.58;;;0.90;;
60722;SDS011;46574;52.818;6.516;2024-01-15T12:05:14;3.90;;;1.00;;
60722;SDS011;46574;52.818;6.516;2024-01-15T12:07:41;4.68;;;1.20;;
60722;SDS011;46574;52.818;6.516;2024-01-15T12:10:11;3.50;;;1.05;;
60722;SDS011;46574;52.818;6.516;2024-01-15T12:15:20;5.90;;;1.00;;
60722;SDS011;46574;52.818;6.516;2024-01-15T12:17:46;3.20;;;1.10;;
60722;SDS011;46574;52.818;6.516;2024-01-15T12:20:12;5.25;;;1.02;;
60722;SDS011;46574;52.818;6.516;2024-01-15T12:22:38;2.50;;;1.00;;
60722;SDS011;46574;52.818;6.516;2024-01-15T12:25:04;1.67;;;0.70;;
60722;SDS011;46574;52.818;6.516;2024-01-15T12:27:30;2.50;;;0.65;;
60722;SDS011;46574;52.818;6.516;2024-01-15T12:29:58;4.18;;;1.08;;
60722;SDS011;46574;52.818;6.516;2024-01-15T12:32:24;2.17;;;0.80;;
60722;SDS011;46574;52.818;6.516;2024-01-15T12:34:50;4.57;;;0.85;;
60722;SDS011;46574;52.818;6.516;2024-01-15T12:37:19;3.88;;;0.80;;
60722;SDS011;46574;52.818;6.516;2024-01-15T12:39:45;5.07;;;1.73;;
60722;SDS011;46574;52.818;6.516;2024-01-15T12:42:11;2.78;;;0.60;;
60722;SDS011;46574;52.818;6.516;2024-01-15T12:44:39;1.67;;;0.77;;
60722;SDS011;46574;52.818;6.516;2024-01-15T12:47:05;4.90;;;1.10;;
60722;SDS011;46574;52.818;6.516;2024-01-15T12:49:31;2.63;;;0.85;;
60722;SDS011;46574;52.818;6.516;2024-01-15T12:51:57;3.13;;;0.88;;
60722;SDS011;46574;52.818;6.516;2024-01-15T12:54:23;2.40;;;0.80;;
60722;SDS011;46574;52.818;6.516;2024-01-15T12:56:50;3.78;;;1.17;;
60722;SDS011;46574;52.818;6.516;2024-01-15T12:59:16;5.78;;;1.00;;
60722;SDS011;46574;52.818;6.516;2024-01-15T13:01:42;6.82;;;1.20;;
60722;SDS011;46574;52.818;6.516;2024-01-15T13:04:08;9.82;;;1.50;;
60722;SDS011;46574;52.818;6.516;2024-01-15T13:06:37;3.53;;;1.00;;
60722;SDS011;46574;52.818;6.516;2024-01-15T13:09:03;9.32;;;1.23;;
60722;SDS011;46574;52.818;6.516;2024-01-15T13:11:32;4.43;;;1.13;;
60722;SDS011;46574;52.818;6.516;2024-01-15T13:13:58;6.85;;;1.35;;
60722;SDS011;46574;52.818;6.516;2024-01-15T13:16:23;5.78;;;1.17;;
60722;SDS011;46574;52.818;6.516;2024-01-15T13:18:52;7.33;;;1.37;;
60722;SDS011;46574;52.818;6.516;2024-01-15T13:21:17;4.75;;;0.90;;
60722;SDS011;46574;52.818;6.516;2024-01-15T13:23:43;2.75;;;1.17;;
60722;SDS011;46574;52.818;6.516;2024-01-15T13:26:09;6.63;;;1.10;;
60722;SDS011;46574;52.818;6.516;2024-01-15T13:28:34;4.75;;;1.25;;
60722;SDS011;46574;52.818;6.516;2024-01-15T13:31:00;7.30;;;1.52;;
60722;SDS011;46574;52.818;6.516;2024-01-15T13:33:27;4.40;;;1.13;;
60722;SDS011;46574;52.818;6.516;2024-01-15T13:35:53;5.78;;;1.40;;
60722;SDS011;46574;52.818;6.516;2024-01-15T13:38:18;4.60;;;1.00;;
60722;SDS011;46574;52.818;6.516;2024-01-15T13:40:44;4.40;;;1.60;;
60722;SDS011;46574;52.818;6.516;2024-01-15T13:43:10;5.57;;;1.10;;
60722;SDS011;46574;52.818;6.516;2024-01-15T13:45:37;5.40;;;1.40;;
60722;SDS011;46574;52.818;6.516;2024-01-15T13:48:04;8.13;;;1.50;;
60722;SDS011;46574;52.818;6.516;2024-01-15T13:50:36;5.25;;;1.35;;
60722;SDS011;46574;52.818;6.516;2024-01-15T13:53:02;5.10;;;1.30;;
60722;SDS011;46574;52.818;6.516;2024-01-15T13:55:31;6.35;;;1.40;;
60722;SDS011;46574;52.818;6.516;2024-01-15T13:57:57;6.65;;;1.70;;
60722;SDS011;46574;52.818;6.516;2024-01-15T14:00:22;4.85;;;1.17;;
60722;SDS011;46574;52.818;6.516;2024-01-15T14:02:48;4.70;;;1.17;;
60722;SDS011;46574;52.818;6.516;2024-01-15T14:05:14;6.78;;;1.52;;
60722;SDS011;46574;52.818;6.516;2024-01-15T14:07:40;4.68;;;1.20;;
60722;SDS011;46574;52.818;6.516;2024-01-15T14:10:06;5.57;;;1.63;;
60722;SDS011;46574;52.818;6.516;2024-01-15T14:12:33;6.07;;;1.58;;
60722;SDS011;46574;52.818;6.516;2024-01-15T14:14:59;7.00;;;1.73;;
60722;SDS011;46574;52.818;6.516;2024-01-15T14:17:28;9.05;;;1.80;;
60722;SDS011;46574;52.818;6.516;2024-01-15T14:19:54;8.55;;;2.05;;
60722;SDS011;46574;52.818;6.516;2024-01-15T14:22:20;7.05;;;2.10;;
60722;SDS011;46574;52.818;6.516;2024-01-15T14:24:45;9.05;;;1.95;;
60722;SDS011;46574;52.818;6.516;2024-01-15T14:27:11;10.32;;;2.10;;
60722;SDS011;46574;52.818;6.516;2024-01-15T14:29:37;7.45;;;2.05;;
60722;SDS011;46574;52.818;6.516;2024-01-15T14:32:03;7.90;;;2.45;;
60722;SDS011;46574;52.818;6.516;2024-01-15T14:34:29;7.18;;;1.80;;
60722;SDS011;46574;52.818;6.516;2024-01-15T14:36:54;7.55;;;1.73;;
60722;SDS011;46574;52.818;6.516;2024-01-15T14:39:24;8.68;;;1.90;;
60722;SDS011;46574;52.818;6.516;2024-01-15T14:41:50;6.25;;;1.40;;
60722;SDS011;46574;52.818;6.516;2024-01-15T14:44:16;3.97;;;1.35;;
60722;SDS011;46574;52.818;6.516;2024-01-15T14:46:42;7.43;;;1.75;;
60722;SDS011;46574;52.818;6.516;2024-01-15T14:49:08;7.15;;;2.53;;
60722;SDS011;46574;52.818;6.516;2024-01-15T14:51:33;8.00;;;1.67;;
60722;SDS011;46574;52.818;6.516;2024-01-15T14:53:59;7.00;;;1.58;;
60722;SDS011;46574;52.818;6.516;2024-01-15T14:56:25;7.65;;;1.73;;
60722;SDS011;46574;52.818;6.516;2024-01-15T14:58:50;9.02;;;1.70;;
60722;SDS011;46574;52.818;6.516;2024-01-15T15:01:16;8.35;;;1.98;;
60722;SDS011;46574;52.818;6.516;2024-01-15T15:03:42;7.93;;;1.88;;
60722;SDS011;46574;52.818;6.516;2024-01-15T15:06:09;8.50;;;1.60;;
60722;SDS011;46574;52.818;6.516;2024-01-15T15:08:35;8.32;;;2.90;;